Time;durP1;ratioP1;P1;durP2;ratioP2;P2;SDS_P1;SDS_P2;PMS_P1;PMS_P2;Temp;Humidity;BMP_temperature;BMP_pressure;BME280_temperature;BME280_humidity;BME280_pressure;Samples;Min_cycle;Max_cycle;Signal;HPM_P1;HPM_P2
2021/10/18 00:01:44;;;;;;;17.13;10.88;;;;;;;;;;4991416;28;20050;-67
2021/10/18 00:04:11;;;;;;;14.23;10.68;;;;;;;;;;4992601;28;20050;-67
2021/10/18 00:06:37;;;;;;;18.65;10.65;;;;;;;;;;4991261;28;20053;-67
2021/10/18 00:09:03;;;;;;;18.83;10.35;;;;;;;;;;4990391;28;20124;-67
2021/10/18 00:11:29;;;;;;;14.77;10.70;;;;;;;;;;4998111;28;20189;-67
2021/10/18 00:13:56;;;;;;;19.77;11.35;;;;;;;;;;4997657;28;20042;-67
2021/10/18 00:16:22;;;;;;;17.70;10.88;;;;;;;;;;5006158;28;20129;-67
2021/10/18 00:18:48;;;;;;;15.70;11.13;;;;;;;;;;4992861;28;20103;-67
2021/10/18 00:21:15;;;;;;;18.63;12.00;;;;;;;;;;4988928;28;20108;-67
2021/10/18 00:23:41;;;;;;;15.02;10.88;;;;;;;;;;4994271;28;20049;-67
2021/10/18 00:26:07;;;;;;;22.40;11.98;;;;;;;;;;4994704;28;20046;-67
2021/10/18 00:28:34;;;;;;;21.60;12.20;;;;;;;;;;4993391;28;20490;-67
2021/10/18 00:31:00;;;;;;;18.10;12.25;;;;;;;;;;4988200;28;20037;-67
2021/10/18 00:33:26;;;;;;;18.17;11.23;;;;;;;;;;5003307;28;20497;-67
2021/10/18 00:35:52;;;;;;;17.85;11.30;;;;;;;;;;5005556;28;20042;-67
2021/10/18 00:38:18;;;;;;;17.83;12.13;;;;;;;;;;5006517;28;20523;-67
2021/10/18 00:40:44;;;;;;;18.45;12.15;;;;;;;;;;4996855;28;20386;-67
2021/10/18 00:43:10;;;;;;;16.13;12.57;;;;;;;;;;5006993;28;20041;-67
2021/10/18 00:45:37;;;;;;;17.55;11.95;;;;;;;;;;4992662;28;20438;-67
2021/10/18 00:48:04;;;;;;;20.70;13.63;;;;;;;;;;4990794;28;20505;-67
2021/10/18 00:50:30;;;;;;;19.38;12.63;;;;;;;;;;4987451;28;20086;-67
2021/10/18 00:52:56;;;;;;;21.55;12.88;;;;;;;;;;4995721;28;20430;-67
2021/10/18 00:55:23;;;;;;;15.98;12.98;;;;;;;;;;4995755;28;20050;-67
2021/10/18 00:57:49;;;;;;;20.40;13.32;;;;;;;;;;4993630;28;20445;-68
2021/10/18 01:00:15;;;;;;;20.83;12.68;;;;;;;;;;4997661;28;20117;-67
2021/10/18 01:02:41;;;;;;;22.35;13.27;;;;;;;;;;4979411;28;20458;-67
2021/10/18 01:05:08;;;;;;;18.98;13.10;;;;;;;;;;5002312;28;20096;-67
2021/10/18 01:07:35;;;;;;;20.02;13.20;;;;;;;;;;4995507;28;20046;-67
2021/10/18 01:10:01;;;;;;;21.48;13.27;;;;;;;;;;4993106;28;20050;-67
2021/10/18 01:12:28;;;;;;;18.77;12.90;;;;;;;;;;4990277;28;20108;-67
2021/10/18 01:14:55;;;;;;;21.58;13.13;;;;;;;;;;5004813;28;20057;-67
2021/10/18 01:17:21;;;;;;;22.50;13.85;;;;;;;;;;4996498;28;20248;-67
2021/10/18 01:19:48;;;;;;;20.63;13.43;;;;;;;;;;4994509;28;20448;-67
2021/10/18 01:22:14;;;;;;;21.92;13.30;;;;;;;;;;5006253;28;20084;-67
2021/10/18 01:24:41;;;;;;;20.20;13.25;;;;;;;;;;4985602;28;20042;-67
2021/10/18 01:27:07;;;;;;;17.42;12.55;;;;;;;;;;4993444;28;20115;-67
2021/10/18 01:29:34;;;;;;;20.90;13.80;;;;;;;;;;5002353;28;20045;-67
2021/10/18 01:32:00;;;;;;;21.92;13.20;;;;;;;;;;4992850;28;20509;-67
2021/10/18 01:34:27;;;;;;;20.33;12.77;;;;;;;;;;5003201;28;20034;-67
2021/10/18 01:36:55;;;;;;;20.20;13.38;;;;;;;;;;4996204;28;20046;-67
2021/10/18 01:39:21;;;;;;;23.90;14.07;;;;;;;;;;4993544;28;20045;-67
2021/10/18 01:41:47;;;;;;;22.75;13.13;;;;;;;;;;4985944;28;20378;-67
2021/10/18 01:44:14;;;;;;;21.55;13.93;;;;;;;;;;5003973;28;20038;-67
2021/10/18 01:46:41;;;;;;;21.13;12.75;;;;;;;;;;4989317;28;20536;-67
2021/10/18 01:49:07;;;;;;;19.00;12.40;;;;;;;;;;4993077;28;20478;-67
2021/10/18 01:51:34;;;;;;;22.73;13.18;;;;;;;;;;5000821;28;20069;-67
2021/10/18 01:54:00;;;;;;;19.80;12.82;;;;;;;;;;4994084;28;20439;-67
2021/10/18 01:56:26;;;;;;;18.88;13.60;;;;;;;;;;4992651;28;20045;-67
2021/10/18 01:58:52;;;;;;;23.27;13.27;;;;;;;;;;5000934;28;20137;-67
2021/10/18 02:01:18;;;;;;;22.98;13.90;;;;;;;;;;4991449;28;20104;-67
2021/10/18 02:03:44;;;;;;;18.92;14.23;;;;;;;;;;4975357;28;20044;-67
2021/10/18 02:06:11;;;;;;;22.85;13.80;;;;;;;;;;5006779;28;20077;-67
2021/10/18 02:08:38;;;;;;;21.25;14.23;;;;;;;;;;4990510;28;20068;-67
2021/10/18 02:11:05;;;;;;;19.92;14.52;;;;;;;;;;5000237;28;20057;-67
2021/10/18 02:13:32;;;;;;;22.27;14.32;;;;;;;;;;5000656;28;20042;-67
2021/10/18 02:15:58;;;;;;;22.13;14.60;;;;;;;;;;4999657;28;21481;-67
2021/10/18 02:18:24;;;;;;;21.67;15.15;;;;;;;;;;4985746;28;20041;-66
2021/10/18 02:20:50;;;;;;;29.08;16.52;;;;;;;;;;4990561;28;20038;-67
2021/10/18 02:23:17;;;;;;;19.98;14.68;;;;;;;;;;4981747;28;20066;-67
2021/10/18 02:25:43;;;;;;;26.55;15.30;;;;;;;;;;5007763;28;20033;-67
2021/10/18 02:28:09;;;;;;;20.08;14.88;;;;;;;;;;4992946;28;20054;-67
2021/10/18 02:30:35;;;;;;;27.50;15.02;;;;;;;;;;4992383;28;20034;-67
2021/10/18 02:33:01;;;;;;;26.20;14.73;;;;;;;;;;4986455;28;20143;-67
2021/10/18 02:35:27;;;;;;;24.17;15.52;;;;;;;;;;4990683;28;20053;-67
2021/10/18 02:37:53;;;;;;;20.77;14.38;;;;;;;;;;4992778;28;20394;-67
2021/10/18 02:40:19;;;;;;;19.98;15.10;;;;;;;;;;4992406;28;20045;-67
2021/10/18 02:42:46;;;;;;;22.58;14.63;;;;;;;;;;4992670;28;20041;-67
2021/10/18 02:45:12;;;;;;;26.23;15.40;;;;;;;;;;5006989;28;20402;-67
2021/10/18 02:47:38;;;;;;;24.25;14.73;;;;;;;;;;4994860;28;20328;-67
2021/10/18 02:50:05;;;;;;;23.60;15.40;;;;;;;;;;4992880;28;20046;-67
2021/10/18 02:52:31;;;;;;;23.00;15.40;;;;;;;;;;4999723;28;20081;-67
2021/10/18 02:54:57;;;;;;;26.95;15.98;;;;;;;;;;5003275;28;20050;-67
2021/10/18 02:57:23;;;;;;;24.90;16.35;;;;;;;;;;4990959;28;20045;-67
2021/10/18 02:59:49;;;;;;;22.33;15.95;;;;;;;;;;4989033;28;20058;-67
2021/10/18 03:02:17;;;;;;;21.65;15.70;;;;;;;;;;4982123;28;20051;-67
2021/10/18 03:04:44;;;;;;;23.80;16.25;;;;;;;;;;4982852;28;20402;-67
2021/10/18 03:07:10;;;;;;;29.38;16.90;;;;;;;;;;4989125;28;20097;-67
2021/10/18 03:09:36;;;;;;;30.95;17.25;;;;;;;;;;4989199;28;20046;-67
2021/10/18 03:12:02;;;;;;;22.85;16.10;;;;;;;;;;4987912;28;20077;-67
2021/10/18 03:14:28;;;;;;;24.73;16.17;;;;;;;;;;4977489;28;20054;-67
2021/10/18 03:16:54;;;;;;;27.30;15.23;;;;;;;;;;4987449;28;20046;-67
2021/10/18 03:19:21;;;;;;;27.33;15.70;;;;;;;;;;4979326;28;20429;-67
2021/10/18 03:21:47;;;;;;;23.08;16.23;;;;;;;;;;4989142;28;20045;-67
2021/10/18 03:24:13;;;;;;;25.05;16.33;;;;;;;;;;4998851;28;20050;-67
2021/10/18 03:26:39;;;;;;;24.20;17.30;;;;;;;;;;4987527;28;20050;-67
2021/10/18 03:29:05;;;;;;;25.77;18.05;;;;;;;;;;4988910;28;20141;-67
2021/10/18 03:31:31;;;;;;;25.23;17.77;;;;;;;;;;4984394;28;20188;-67
2021/10/18 03:33:58;;;;;;;25.48;17.90;;;;;;;;;;4989631;28;20049;-67
2021/10/18 03:36:24;;;;;;;32.00;18.45;;;;;;;;;;4980870;28;20532;-67
2021/10/18 03:38:50;;;;;;;26.10;17.95;;;;;;;;;;4985813;28;20077;-67
2021/10/18 03:41:16;;;;;;;26.80;18.88;;;;;;;;;;4986432;28;20078;-66
2021/10/18 03:43:42;;;;;;;28.25;17.65;;;;;;;;;;4987368;28;20152;-67
2021/10/18 03:46:08;;;;;;;23.98;18.60;;;;;;;;;;4987119;28;20054;-67
2021/10/18 03:48:34;;;;;;;27.88;18.92;;;;;;;;;;4979299;28;20043;-67
2021/10/18 03:51:01;;;;;;;31.00;19.77;;;;;;;;;;4982843;28;20496;-67
2021/10/18 03:53:27;;;;;;;31.75;18.13;;;;;;;;;;4988558;28;20180;-67
2021/10/18 03:55:54;;;;;;;27.95;18.38;;;;;;;;;;4985608;28;20050;-67
2021/10/18 03:58:20;;;;;;;25.95;18.40;;;;;;;;;;4990981;28;20072;-67
2021/10/18 04:00:46;;;;;;;25.98;17.88;;;;;;;;;;4991638;28;20089;-67
2021/10/18 04:03:12;;;;;;;28.70;18.45;;;;;;;;;;5001471;28;20034;-67
2021/10/18 04:05:38;;;;;;;28.42;18.08;;;;;;;;;;5001504;28;20053;-67
2021/10/18 04:08:05;;;;;;;29.63;18.55;;;;;;;;;;4990373;28;20129;-67
2021/10/18 04:10:32;;;;;;;28.20;18.55;;;;;;;;;;4991627;28;20034;-67
2021/10/18 04:13:00;;;;;;;27.67;18.13;;;;;;;;;;5006539;28;20045;-67
2021/10/18 04:15:26;;;;;;;29.40;18.17;;;;;;;;;;5005939;28;20050;-67
2021/10/18 04:17:52;;;;;;;26.02;18.58;;;;;;;;;;4987051;28;20050;-67
2021/10/18 04:20:19;;;;;;;26.17;18.13;;;;;;;;;;4978158;28;20041;-67
2021/10/18 04:22:46;;;;;;;28.33;17.95;;;;;;;;;;5003684;28;20050;-67
2021/10/18 04:25:14;;;;;;;30.33;18.20;;;;;;;;;;4995695;28;20375;-67
2021/10/18 04:27:40;;;;;;;25.55;18.17;;;;;;;;;;4989287;28;20046;-67
2021/10/18 04:30:07;;;;;;;28.65;18.13;;;;;;;;;;4988486;28;20112;-67
2021/10/18 04:32:33;;;;;;;27.77;18.88;;;;;;;;;;5005902;28;20462;-67
2021/10/18 04:34:59;;;;;;;24.83;17.75;;;;;;;;;;4991039;28;20081;-67
2021/10/18 04:37:25;;;;;;;30.52;16.88;;;;;;;;;;4997846;28;20046;-67
2021/10/18 04:39:51;;;;;;;24.60;16.83;;;;;;;;;;4996738;28;20046;-67
2021/10/18 04:42:17;;;;;;;24.73;17.35;;;;;;;;;;4983517;28;20132;-66
2021/10/18 04:44:43;;;;;;;28.10;18.38;;;;;;;;;;4989409;28;20045;-66
2021/10/18 04:47:10;;;;;;;25.35;18.10;;;;;;;;;;4996418;28;20042;-66
2021/10/18 04:49:36;;;;;;;25.75;18.00;;;;;;;;;;4988182;28;20514;-67
2021/10/18 04:52:02;;;;;;;28.30;18.27;;;;;;;;;;4990636;28;20141;-67
2021/10/18 04:54:28;;;;;;;24.50;17.77;;;;;;;;;;5008116;28;20397;-67
2021/10/18 04:56:54;;;;;;;32.00;19.17;;;;;;;;;;5003521;28;20038;-67
2021/10/18 04:59:20;;;;;;;25.58;17.70;;;;;;;;;;4998249;28;20057;-67
2021/10/18 05:01:47;;;;;;;32.17;18.40;;;;;;;;;;4992286;28;21668;-67
2021/10/18 05:04:13;;;;;;;27.38;18.88;;;;;;;;;;4993294;28;20038;-67
2021/10/18 05:06:39;;;;;;;26.90;17.70;;;;;;;;;;4981558;28;20526;-67
2021/10/18 05:09:06;;;;;;;22.83;16.23;;;;;;;;;;4992707;28;20049;-67
2021/10/18 05:11:33;;;;;;;25.80;17.25;;;;;;;;;;4991436;28;20604;-67
2021/10/18 05:13:59;;;;;;;25.30;17.52;;;;;;;;;;4992548;28;20141;-67
2021/10/18 05:16:25;;;;;;;27.10;18.10;;;;;;;;;;4993473;28;20064;-67
2021/10/18 05:18:51;;;;;;;26.33;17.08;;;;;;;;;;5005269;28;20484;-67
2021/10/18 05:21:17;;;;;;;27.35;18.67;;;;;;;;;;5005132;28;20046;-67
2021/10/18 05:23:44;;;;;;;27.23;17.02;;;;;;;;;;4992580;28;20082;-67
2021/10/18 05:26:10;;;;;;;26.77;17.85;;;;;;;;;;4999894;28;20088;-67
2021/10/18 05:28:36;;;;;;;26.67;16.70;;;;;;;;;;5001245;28;20426;-67
2021/10/18 05:31:02;;;;;;;27.42;17.65;;;;;;;;;;4996891;28;20097;-67
2021/10/18 05:33:28;;;;;;;24.27;16.95;;;;;;;;;;4998613;28;20049;-67
2021/10/18 05:35:54;;;;;;;27.95;16.83;;;;;;;;;;5001454;28;20121;-67
2021/10/18 05:38:21;;;;;;;26.95;18.13;;;;;;;;;;4997054;28;20095;-67
2021/10/18 05:40:47;;;;;;;23.33;16.83;;;;;;;;;;4993002;28;20049;-67
2021/10/18 05:43:14;;;;;;;29.30;17.65;;;;;;;;;;4997802;28;20042;-67
2021/10/18 05:45:41;;;;;;;28.90;19.70;;;;;;;;;;4991666;28;20049;-75
2021/10/18 05:48:07;;;;;;;25.50;17.50;;;;;;;;;;4976053;28;20053;-67
2021/10/18 05:50:35;;;;;;;26.42;17.95;;;;;;;;;;5003330;28;20048;-67
2021/10/18 05:53:01;;;;;;;25.08;17.65;;;;;;;;;;4996789;28;20409;-67
2021/10/18 05:55:27;;;;;;;27.65;18.27;;;;;;;;;;5005986;28;20046;-67
2021/10/18 05:57:55;;;;;;;27.35;17.83;;;;;;;;;;4993718;28;20042;-67
2021/10/18 06:00:22;;;;;;;24.20;18.40;;;;;;;;;;5012666;28;20081;-67
2021/10/18 06:02:49;;;;;;;28.48;17.67;;;;;;;;;;5012272;28;20046;-67
2021/10/18 06:05:16;;;;;;;25.85;18.10;;;;;;;;;;4992720;28;20057;-67
2021/10/18 06:07:42;;;;;;;27.77;17.60;;;;;;;;;;4989653;28;20069;-67
2021/10/18 06:10:09;;;;;;;23.48;16.70;;;;;;;;;;4997715;28;21177;-67
2021/10/18 06:12:35;;;;;;;24.30;17.17;;;;;;;;;;4998646;28;20054;-67
2021/10/18 06:15:02;;;;;;;42.47;18.67;;;;;;;;;;5016607;28;20080;-67
2021/10/18 06:17:29;;;;;;;24.95;17.35;;;;;;;;;;4996336;28;20117;-67
2021/10/18 06:19:55;;;;;;;34.75;19.25;;;;;;;;;;4990600;28;20489;-67
2021/10/18 06:22:21;;;;;;;26.13;18.20;;;;;;;;;;5014658;28;20054;-67
2021/10/18 06:24:49;;;;;;;25.40;18.20;;;;;;;;;;4996601;28;20498;-67
2021/10/18 06:27:16;;;;;;;26.25;17.25;;;;;;;;;;4994691;28;20207;-67
2021/10/18 06:29:42;;;;;;;30.08;18.20;;;;;;;;;;5000476;28;20041;-67
2021/10/18 06:32:08;;;;;;;27.85;18.70;;;;;;;;;;4993739;28;20046;-67
2021/10/18 06:34:34;;;;;;;31.70;17.30;;;;;;;;;;4976942;28;20458;-67
2021/10/18 06:37:01;;;;;;;26.27;18.77;;;;;;;;;;4996040;28;20143;-67
2021/10/18 06:39:27;;;;;;;24.88;18.35;;;;;;;;;;4977017;28;20153;-67
2021/10/18 06:41:53;;;;;;;28.65;19.58;;;;;;;;;;5005572;28;20444;-67
2021/10/18 06:44:19;;;;;;;27.02;19.17;;;;;;;;;;4992167;28;20347;-67
2021/10/18 06:46:45;;;;;;;26.90;18.80;;;;;;;;;;4994173;28;20038;-67
2021/10/18 06:49:12;;;;;;;28.77;18.80;;;;;;;;;;4988603;28;20046;-67
2021/10/18 06:51:45;;;;;;;32.20;18.40;;;;;;;;;;5005337;28;20437;-67
2021/10/18 06:54:13;;;;;;;28.40;19.10;;;;;;;;;;5003898;28;20046;-67
2021/10/18 06:56:44;;;;;;;27.23;18.33;;;;;;;;;;5007922;28;20474;-66
2021/10/18 06:59:11;;;;;;;25.77;17.70;;;;;;;;;;4990290;28;20086;-67
2021/10/18 07:01:37;;;;;;;26.80;18.95;;;;;;;;;;4979777;28;20054;-66
2021/10/18 07:04:04;;;;;;;26.33;18.17;;;;;;;;;;4970589;28;20228;-65
2021/10/18 07:06:30;;;;;;;26.92;17.92;;;;;;;;;;4972421;28;21308;-66
2021/10/18 07:08:56;;;;;;;26.85;18.48;;;;;;;;;;4980532;28;20117;-67
2021/10/18 07:11:23;;;;;;;26.15;18.70;;;;;;;;;;4978554;28;20130;-67
2021/10/18 07:13:49;;;;;;;31.13;19.17;;;;;;;;;;4995322;28;20134;-67
2021/10/18 07:16:15;;;;;;;25.80;18.58;;;;;;;;;;4963679;28;20046;-67
2021/10/18 07:18:41;;;;;;;26.02;18.75;;;;;;;;;;4971441;28;20058;-67
2021/10/18 07:21:07;;;;;;;26.98;18.02;;;;;;;;;;4979454;28;20043;-67
2021/10/18 07:23:33;;;;;;;24.40;17.42;;;;;;;;;;4992559;28;20055;-66
2021/10/18 07:26:02;;;;;;;27.08;17.98;;;;;;;;;;4967902;28;20042;-67
2021/10/18 07:28:28;;;;;;;25.20;18.45;;;;;;;;;;4965251;28;20054;-71
2021/10/18 07:30:57;;;;;;;28.35;19.02;;;;;;;;;;4966838;28;20070;-66
2021/10/18 07:33:23;;;;;;;24.85;18.08;;;;;;;;;;4968551;28;20117;-65
2021/10/18 07:35:49;;;;;;;25.30;18.42;;;;;;;;;;4980594;28;20049;-65
2021/10/18 07:38:16;;;;;;;26.27;17.83;;;;;;;;;;4977954;28;20108;-65
2021/10/18 07:40:42;;;;;;;21.25;17.42;;;;;;;;;;4979273;28;20090;-66
2021/10/18 07:43:10;;;;;;;25.50;17.02;;;;;;;;;;4980963;28;20474;-65
2021/10/18 07:45:36;;;;;;;27.38;17.92;;;;;;;;;;4982345;28;20077;-66
2021/10/18 07:48:03;;;;;;;27.05;17.45;;;;;;;;;;4972357;28;20054;-67
2021/10/18 07:50:29;;;;;;;24.92;17.27;;;;;;;;;;4986073;28;20038;-67
2021/10/18 07:52:55;;;;;;;26.10;16.55;;;;;;;;;;4986614;28;20126;-67
2021/10/18 07:55:21;;;;;;;24.20;17.77;;;;;;;;;;4978679;28;20104;-67
2021/10/18 07:57:49;;;;;;;23.50;16.80;;;;;;;;;;4959986;28;20197;-67
2021/10/18 08:00:16;;;;;;;27.63;18.45;;;;;;;;;;5008674;28;20054;-66
2021/10/18 08:02:43;;;;;;;30.25;18.25;;;;;;;;;;4993701;28;20101;-66
2021/10/18 08:05:15;;;;;;;33.13;18.80;;;;;;;;;;4994133;28;20046;-66
2021/10/18 08:07:41;;;;;;;27.17;18.25;;;;;;;;;;4974909;28;20120;-66
2021/10/18 08:10:08;;;;;;;27.90;18.38;;;;;;;;;;5008316;28;20042;-67
2021/10/18 08:12:37;;;;;;;26.52;18.45;;;;;;;;;;5009430;28;20129;-66
2021/10/18 08:15:03;;;;;;;26.17;18.60;;;;;;;;;;4993693;28;20124;-66
2021/10/18 08:17:30;;;;;;;26.52;18.65;;;;;;;;;;5001491;28;20083;-66
2021/10/18 08:19:56;;;;;;;27.42;19.08;;;;;;;;;;5009942;28;20871;-66
2021/10/18 08:22:22;;;;;;;25.35;19.13;;;;;;;;;;4993312;28;20077;-66
2021/10/18 08:24:48;;;;;;;30.50;19.60;;;;;;;;;;5004569;28;20072;-67
2021/10/18 08:27:14;;;;;;;30.05;19.67;;;;;;;;;;4993657;28;20050;-67
2021/10/18 08:29:41;;;;;;;27.25;19.15;;;;;;;;;;5010799;28;20494;-67
2021/10/18 08:32:07;;;;;;;27.52;19.05;;;;;;;;;;4983744;28;20054;-67
2021/10/18 08:34:33;;;;;;;26.90;18.33;;;;;;;;;;5002598;28;20034;-66
2021/10/18 08:36:59;;;;;;;29.60;18.67;;;;;;;;;;5014831;28;20413;-66
2021/10/18 08:42:15;;;;;;;26.42;18.90;;;;;;;;;;5000453;28;20050;-67
2021/10/18 08:44:41;;;;;;;24.42;19.27;;;;;;;;;;4998017;28;20057;-66
2021/10/18 08:47:07;;;;;;;30.80;20.88;;;;;;;;;;4997265;28;20037;-67
2021/10/18 08:49:33;;;;;;;29.90;20.45;;;;;;;;;;5012708;28;20038;-67
2021/10/18 08:52:00;;;;;;;30.40;19.67;;;;;;;;;;5002153;28;20045;-66
2021/10/18 08:54:27;;;;;;;29.80;20.13;;;;;;;;;;4992452;28;20054;-67
2021/10/18 08:56:54;;;;;;;30.92;20.25;;;;;;;;;;5013896;28;20393;-67
2021/10/18 08:59:20;;;;;;;28.85;20.08;;;;;;;;;;4997842;28;20050;-67
2021/10/18 09:01:48;;;;;;;31.25;21.13;;;;;;;;;;4996147;28;20587;-67
2021/10/18 09:04:17;;;;;;;31.05;19.55;;;;;;;;;;5012340;28;20056;-67
2021/10/18 09:06:45;;;;;;;30.48;19.90;;;;;;;;;;4997517;28;20042;-67
2021/10/18 09:09:12;;;;;;;29.15;20.05;;;;;;;;;;5006328;28;20465;-66
2021/10/18 09:11:38;;;;;;;31.13;21.70;;;;;;;;;;4996647;28;20117;-67
2021/10/18 09:14:05;;;;;;;31.33;20.63;;;;;;;;;;4996588;28;20042;-67
2021/10/18 09:16:33;;;;;;;30.05;20.15;;;;;;;;;;5004462;28;20085;-67
2021/10/18 09:19:01;;;;;;;32.03;20.80;;;;;;;;;;4996089;28;20042;-67
2021/10/18 09:21:28;;;;;;;34.45;22.17;;;;;;;;;;5014269;28;20117;-67
2021/10/18 09:23:54;;;;;;;29.95;21.10;;;;;;;;;;5007404;28;20072;-67
2021/10/18 09:26:23;;;;;;;27.50;20.27;;;;;;;;;;4997423;28;20045;-66
2021/10/18 09:28:54;;;;;;;27.58;20.50;;;;;;;;;;4980386;28;20049;-67
2021/10/18 09:31:20;;;;;;;29.48;20.77;;;;;;;;;;5011672;28;20124;-67
2021/10/18 09:33:50;;;;;;;31.48;21.90;;;;;;;;;;4996170;28;20049;-67
2021/10/18 09:36:22;;;;;;;26.05;19.27;;;;;;;;;;4996403;28;20401;-67
2021/10/18 09:38:48;;;;;;;30.63;20.73;;;;;;;;;;5012704;28;20046;-67
2021/10/18 09:41:14;;;;;;;28.30;19.50;;;;;;;;;;5012934;28;20053;-66
2021/10/18 09:43:47;;;;;;;27.20;19.75;;;;;;;;;;4995497;28;20506;-67
2021/10/18 09:46:18;;;;;;;28.13;18.83;;;;;;;;;;5014602;28;20042;-67
2021/10/18 10:53:18;;;;;;;29.05;20.50;;;;;;;;;;4997294;28;20474;-66
2021/10/18 10:55:44;;;;;;;27.00;20.05;;;;;;;;;;4991586;28;20110;-66
2021/10/18 10:58:34;;;;;;;26.25;19.65;;;;;;;;;;4995782;28;20142;-67
2021/10/18 11:01:00;;;;;;;26.67;19.75;;;;;;;;;;4990969;28;20042;-66
2021/10/18 11:03:36;;;;;;;29.67;18.98;;;;;;;;;;4992670;28;20061;-66
2021/10/18 11:06:04;;;;;;;28.13;19.55;;;;;;;;;;4992744;28;20121;-66
2021/10/18 11:08:31;;;;;;;26.55;18.77;;;;;;;;;;5003834;28;20092;-66
2021/10/18 11:11:06;;;;;;;26.67;19.08;;;;;;;;;;5007956;28;20042;-66
2021/10/18 11:13:39;;;;;;;25.13;17.92;;;;;;;;;;4989406;28;20533;-67
2021/10/18 11:16:06;;;;;;;24.88;18.00;;;;;;;;;;4993655;28;20232;-66
2021/10/18 11:18:32;;;;;;;29.73;19.17;;;;;;;;;;5005394;28;20393;-66
2021/10/18 11:21:11;;;;;;;28.65;19.50;;;;;;;;;;4989703;28;20045;-67
2021/10/18 11:23:52;;;;;;;29.30;19.65;;;;;;;;;;4991819;28;20053;-66
2021/10/18 11:26:19;;;;;;;28.85;19.52;;;;;;;;;;4990786;28;20073;-66
2021/10/18 11:28:45;;;;;;;26.92;19.30;;;;;;;;;;4979559;28;20161;-66
2021/10/18 11:31:11;;;;;;;29.00;20.10;;;;;;;;;;5001255;28;20067;-66
2021/10/18 11:33:38;;;;;;;26.98;19.50;;;;;;;;;;4999673;28;20524;-72
2021/10/18 11:36:15;;;;;;;25.17;18.17;;;;;;;;;;5008283;28;20346;-66
2021/10/18 11:38:41;;;;;;;28.25;19.27;;;;;;;;;;5000604;28;20115;-65
2021/10/18 11:41:07;;;;;;;29.25;19.48;;;;;;;;;;4988841;28;20076;-66
2021/10/18 11:43:34;;;;;;;26.58;18.85;;;;;;;;;;5005301;28;20109;-66
2021/10/18 11:46:00;;;;;;;27.05;19.30;;;;;;;;;;4990313;28;20195;-67
2021/10/18 11:48:29;;;;;;;27.77;18.45;;;;;;;;;;4986727;28;20080;-66
2021/10/18 11:50:58;;;;;;;29.27;19.40;;;;;;;;;;4991812;28;20078;-66
2021/10/18 11:53:26;;;;;;;27.58;19.00;;;;;;;;;;5003344;28;20498;-66
2021/10/18 11:55:54;;;;;;;24.52;18.10;;;;;;;;;;4985188;28;20129;-66
2021/10/18 11:58:21;;;;;;;24.30;18.25;;;;;;;;;;4988233;28;20146;-66
2021/10/18 12:00:47;;;;;;;25.45;17.10;;;;;;;;;;4990150;28;20107;-66
2021/10/18 12:03:15;;;;;;;27.50;17.77;;;;;;;;;;4987710;28;20105;-66
2021/10/18 12:05:43;;;;;;;20.25;15.80;;;;;;;;;;4985323;28;20054;-66
2021/10/18 12:08:10;;;;;;;23.02;16.88;;;;;;;;;;4990006;28;20090;-66
2021/10/18 12:10:37;;;;;;;25.52;17.15;;;;;;;;;;5002448;28;20117;-66
2021/10/18 12:13:08;;;;;;;20.92;15.63;;;;;;;;;;4997256;28;20121;-66
2021/10/18 12:15:37;;;;;;;24.20;17.42;;;;;;;;;;5001658;28;20446;-66
2021/10/18 12:18:03;;;;;;;21.70;15.85;;;;;;;;;;4994840;28;20041;-66
2021/10/18 12:20:29;;;;;;;22.20;16.65;;;;;;;;;;4987286;28;20052;-66
2021/10/18 12:22:59;;;;;;;21.95;16.80;;;;;;;;;;4987112;28;20173;-66
2021/10/18 12:25:26;;;;;;;22.77;15.75;;;;;;;;;;4989110;28;20048;-66
2021/10/18 12:27:53;;;;;;;23.08;15.48;;;;;;;;;;4986046;28;20053;-66
2021/10/18 12:30:39;;;;;;;25.00;16.55;;;;;;;;;;4992707;28;20064;-66
2021/10/18 12:33:11;;;;;;;24.23;15.77;;;;;;;;;;5002970;28;20080;-66
2021/10/18 12:35:37;;;;;;;23.52;16.23;;;;;;;;;;4991423;28;20084;-66
2021/10/18 12:38:13;;;;;;;26.85;16.73;;;;;;;;;;5002405;28;20528;-66
2021/10/18 12:40:40;;;;;;;19.65;15.07;;;;;;;;;;4997904;28;20728;-66
2021/10/18 12:43:07;;;;;;;22.90;15.55;;;;;;;;;;4999887;28;20534;-66
2021/10/18 12:45:34;;;;;;;28.65;15.98;;;;;;;;;;5004532;28;20069;-66
2021/10/18 12:48:01;;;;;;;22.63;16.23;;;;;;;;;;5003757;28;20549;-66
2021/10/18 12:50:29;;;;;;;23.35;15.25;;;;;;;;;;4988157;28;20121;-66
2021/10/18 12:52:56;;;;;;;20.88;15.90;;;;;;;;;;4989540;28;20057;-66
2021/10/18 12:55:27;;;;;;;22.33;15.35;;;;;;;;;;4994822;28;20121;-66
2021/10/18 12:57:54;;;;;;;24.45;15.95;;;;;;;;;;5001008;28;20454;-66
2021/10/18 13:00:27;;;;;;;24.95;16.67;;;;;;;;;;5004892;28;20465;-66
2021/10/18 13:02:53;;;;;;;20.38;15.15;;;;;;;;;;4992663;28;20050;-67
2021/10/18 13:05:20;;;;;;;22.65;15.48;;;;;;;;;;4991755;28;20057;-66
2021/10/18 13:07:51;;;;;;;22.63;16.45;;;;;;;;;;4984983;28;20060;-66
2021/10/18 13:10:18;;;;;;;22.15;16.20;;;;;;;;;;4985382;28;20153;-66
2021/10/18 13:12:45;;;;;;;24.48;16.27;;;;;;;;;;4988098;28;20229;-66
2021/10/18 13:15:12;;;;;;;24.13;16.35;;;;;;;;;;4987515;28;20449;-66
2021/10/18 13:17:38;;;;;;;25.67;16.77;;;;;;;;;;4988752;28;20508;-66
2021/10/18 13:20:05;;;;;;;25.35;16.85;;;;;;;;;;4999697;28;20046;-66
2021/10/18 13:22:31;;;;;;;22.13;16.15;;;;;;;;;;4996161;28;20583;-66
2021/10/18 13:24:57;;;;;;;21.52;16.52;;;;;;;;;;4992899;28;20453;-66
2021/10/18 13:27:23;;;;;;;22.55;16.63;;;;;;;;;;5006980;28;20187;-67
2021/10/18 13:29:50;;;;;;;23.30;17.33;;;;;;;;;;4989985;28;20117;-66
2021/10/18 13:32:16;;;;;;;21.98;15.43;;;;;;;;;;4990713;28;20064;-66
2021/10/18 13:34:43;;;;;;;23.95;16.85;;;;;;;;;;4988592;28;20509;-66
2021/10/18 13:37:11;;;;;;;22.40;15.88;;;;;;;;;;5009082;28;20564;-66
2021/10/18 13:39:39;;;;;;;24.50;16.60;;;;;;;;;;4989839;28;20517;-67
2021/10/18 13:42:05;;;;;;;23.02;16.20;;;;;;;;;;4988435;28;20054;-66
2021/10/18 13:44:32;;;;;;;23.92;16.42;;;;;;;;;;5000507;28;20042;-66
2021/10/18 13:46:59;;;;;;;20.48;15.40;;;;;;;;;;4992803;28;20038;-66
2021/10/18 13:49:25;;;;;;;22.27;16.02;;;;;;;;;;5000548;28;20034;-67
2021/10/18 13:51:51;;;;;;;20.92;15.55;;;;;;;;;;5006066;28;20363;-66
2021/10/18 13:54:17;;;;;;;22.80;16.20;;;;;;;;;;5008449;28;20071;-66
2021/10/18 13:56:43;;;;;;;22.23;15.75;;;;;;;;;;5002389;28;20053;-66
2021/10/18 13:59:09;;;;;;;19.73;14.80;;;;;;;;;;5003852;28;20414;-66
2021/10/18 14:01:36;;;;;;;20.23;14.63;;;;;;;;;;5003429;28;20093;-67
2021/10/18 14:04:03;;;;;;;22.60;15.05;;;;;;;;;;4973548;28;20823;-67
2021/10/18 14:06:30;;;;;;;25.80;16.02;;;;;;;;;;4999983;28;20042;-67
2021/10/18 14:08:56;;;;;;;20.20;15.60;;;;;;;;;;5001958;28;20577;-67
2021/10/18 14:11:22;;;;;;;20.00;15.77;;;;;;;;;;4974334;28;20050;-67
2021/10/18 14:13:48;;;;;;;20.25;16.10;;;;;;;;;;4991116;28;20140;-67
2021/10/18 14:16:14;;;;;;;22.27;15.38;;;;;;;;;;4993565;28;20077;-66
2021/10/18 14:18:40;;;;;;;23.65;14.57;;;;;;;;;;4978600;28;20108;-67
2021/10/18 14:21:08;;;;;;;21.50;16.33;;;;;;;;;;4990079;28;20046;-67
2021/10/18 14:23:34;;;;;;;20.65;15.18;;;;;;;;;;5001208;28;20042;-67
2021/10/18 14:26:01;;;;;;;20.52;15.50;;;;;;;;;;4990042;28;20046;-67
2021/10/18 14:28:27;;;;;;;23.40;13.98;;;;;;;;;;4991878;28;20049;-67
2021/10/18 14:30:54;;;;;;;20.33;15.68;;;;;;;;;;4975177;28;20077;-67
2021/10/18 14:33:21;;;;;;;22.50;15.00;;;;;;;;;;4995342;28;20442;-67
2021/10/18 14:35:47;;;;;;;19.42;14.85;;;;;;;;;;4999803;28;20042;-67
2021/10/18 14:38:13;;;;;;;20.52;14.50;;;;;;;;;;4992138;28;20090;-67
2021/10/18 14:40:39;;;;;;;20.27;15.07;;;;;;;;;;4995315;28;20065;-67
2021/10/18 14:43:06;;;;;;;22.45;14.30;;;;;;;;;;4992077;28;20405;-67
2021/10/18 14:45:33;;;;;;;25.65;16.15;;;;;;;;;;4989551;28;20041;-66
2021/10/18 14:48:00;;;;;;;24.10;15.38;;;;;;;;;;4991498;28;20050;-67
2021/10/18 14:50:26;;;;;;;24.23;16.30;;;;;;;;;;4989449;28;20113;-67
2021/10/18 14:52:52;;;;;;;28.15;16.38;;;;;;;;;;4993706;28;20092;-67
2021/10/18 14:55:20;;;;;;;22.15;15.38;;;;;;;;;;5003573;28;20078;-67
2021/10/18 14:57:46;;;;;;;22.63;15.88;;;;;;;;;;4982049;28;20047;-67
2021/10/18 15:00:12;;;;;;;23.50;14.68;;;;;;;;;;4985947;28;20057;-67
2021/10/18 15:02:44;;;;;;;24.83;15.93;;;;;;;;;;4980765;28;20051;-67
2021/10/18 15:05:10;;;;;;;21.60;15.05;;;;;;;;;;4985133;28;20062;-66
2021/10/18 15:07:37;;;;;;;19.80;15.52;;;;;;;;;;4986867;28;20053;-67
2021/10/18 15:10:03;;;;;;;24.15;16.40;;;;;;;;;;4986038;28;20474;-67
2021/10/18 15:12:29;;;;;;;23.20;15.88;;;;;;;;;;4986456;28;20129;-67
2021/10/18 15:14:56;;;;;;;19.92;15.68;;;;;;;;;;4984970;28;20090;-67
2021/10/18 15:17:22;;;;;;;23.70;16.58;;;;;;;;;;4985084;28;20056;-67
2021/10/18 15:19:48;;;;;;;22.58;16.55;;;;;;;;;;4985910;28;20054;-67
2021/10/18 15:22:15;;;;;;;20.20;15.43;;;;;;;;;;4986722;28;20403;-67